Pagina principale
METAR-TAF:

METAR-TAF

Aeroporti :

Alessandria-Borg El Arab, Egitto

latitudine: 31-31N, longitudine: 030-10E, altezza: 54 m

Osservazione

Il bollettino è stato emesso 1 ora e 17 minuti fa, alle 03:00 UTC
Vento 4 kt da nord
Temperature 23°C
Umidità 83%
Pressione 1010 hPa
Visibilità 10 km o più
nessuna nube inferiore a 1500 m e nessun cumulonembo

METAR: HEBA 200300Z 35004KT CAVOK 23/20 Q1010 NOSIG

Ora: 06:17 (04:17 UTC)

Previsione

Il bollettino è stato emesso 5 ore e 17 minuti fa, alle 23:00 UTC
Previsione valida dal 20 alle 00 UTC al 21 alle 06 UTC
Vento 7 kt da nord/nord-est
Visibilità 10 km o più
nessuna nube inferiore a 1500 m e nessun cumulonembo

TAF: HEBA 192300Z 2000/2106 02007KT CAVOK

Osservazioni e previsioni meteorologiche di più di 4000 aeroporti (messaggi METAR e TAF).

Le stazioni disponibili sono rappresentate dai dischi gialli e rossi sulla carta.

Puntare il mouse per vedere il nome della stazione.

Clicca sopra per visualizzare le osservazioni e previsioni meteorologiche.

Per cambiare la mappa : fare clic sui pulsanti verdi con una croce nera per ingrandire, il pulsante verde con un trattino per diminuire, o sulla freccia verde per le mappe adiacenti.


METAR-TAF: